Terminal Aerodrome Forecast
Issued by NWS Grand Rapids, MI

Home | Current Version | Previous Version | Text Only | Print | Product List | Glossary On
Versions: 1 2 3 4 5 6 7 8 9 10 11 12 13 14 15 16 17 18 19 20 21 22
220
FTUS43 KGRR 241045 AAC
TAFGRR
TAF AMD
KGRR 241045Z 2411/2506 15009KT 4SM TSRA BR OVC035CB
      TEMPO 2411/2414 21010G18KT 1 1/2SM +TSRA BR OVC025CB
     FM241400 22012G22KT P6SM BKN100
     FM242100 23012G20KT P6SM VCTS BKN040CB=

USA.gov is the U.S. government's official web portal to all federal, state and local government web resources and services.